Terminal Aerodrome Forecast
Issued by NWS

Home | Current Version | Previous Version | Text Only | Print | Product List | Glossary On
Versions: 1 2 3 4 5 6 7 8 9 10 11 12 13 14 15
000
FTUS42 KTBW 270305 AAA
TAFPGD
TAF AMD
KPGD 270305Z 2703/2724 VRB03KT P6SM VCTS SCT040CB BKN080
      TEMPO 2703/2705 VRB15G25KT 3SM TSRA BKN030CB
     FM271800 25006KT P6SM SCT050 SCT250
     FM272100 28008KT P6SM VCTS SCT050CB SCT120=

USA.gov is the U.S. government's official web portal to all federal, state and local government web resources and services.